createdAt,value
2018-04-27T00:00:32.601Z,2.90
2018-04-27T00:03:00.874Z,2.67
2018-04-27T00:05:29.154Z,2.57
2018-04-27T00:07:57.418Z,2.70
2018-04-27T00:10:25.711Z,2.80
2018-04-27T00:12:53.982Z,3.30
2018-04-27T00:15:22.271Z,2.83
2018-04-27T00:17:50.548Z,3.30
2018-04-27T00:20:18.822Z,3.37
2018-04-27T00:22:47.105Z,3.47
2018-04-27T00:25:15.381Z,3.63
2018-04-27T00:27:43.659Z,3.13
2018-04-27T00:30:11.937Z,3.63
2018-04-27T00:32:40.218Z,3.17
2018-04-27T00:35:08.499Z,3.70
2018-04-27T00:37:36.789Z,3.10
2018-04-27T00:40:05.054Z,3.00
2018-04-27T00:42:33.329Z,3.30
2018-04-27T00:45:01.598Z,4.03
2018-04-27T00:47:29.873Z,2.80
2018-04-27T00:49:58.230Z,3.57
2018-04-27T00:52:26.511Z,3.40
2018-04-27T00:54:54.794Z,3.00
2018-04-27T00:57:23.109Z,3.27
2018-04-27T00:59:51.374Z,3.33
2018-04-27T01:02:19.644Z,2.90
2018-04-27T01:04:47.922Z,3.17
2018-04-27T01:07:16.204Z,3.70
2018-04-27T01:09:44.481Z,3.70
2018-04-27T01:12:12.738Z,3.70
2018-04-27T01:14:41.027Z,4.40
2018-04-27T01:17:09.285Z,3.43
2018-04-27T01:19:37.566Z,3.60
2018-04-27T01:22:05.839Z,4.33
2018-04-27T01:24:34.109Z,3.47
2018-04-27T01:27:02.373Z,3.43
2018-04-27T01:29:30.658Z,3.53
2018-04-27T01:31:58.934Z,3.33
2018-04-27T01:34:27.206Z,4.07
2018-04-27T01:36:55.470Z,3.03
2018-04-27T01:39:23.743Z,4.00
2018-04-27T01:41:52.008Z,3.27
2018-04-27T01:44:20.283Z,3.50
2018-04-27T01:46:48.551Z,2.33
2018-04-27T01:49:16.823Z,3.43
2018-04-27T01:51:45.093Z,3.03
2018-04-27T01:54:13.362Z,3.10
2018-04-27T01:56:41.646Z,4.43
2018-04-27T01:59:09.910Z,3.30
2018-04-27T02:01:38.189Z,3.47
2018-04-27T02:04:06.452Z,3.97
2018-04-27T02:06:34.722Z,3.53
2018-04-27T02:09:02.982Z,3.40
2018-04-27T02:11:31.274Z,4.20
2018-04-27T02:13:59.541Z,3.33
2018-04-27T02:16:27.814Z,3.60
2018-04-27T02:18:56.078Z,3.13
2018-04-27T02:21:24.354Z,3.73
2018-04-27T02:23:52.622Z,3.80
2018-04-27T02:26:20.915Z,3.33
2018-04-27T02:28:49.177Z,4.33
2018-04-27T02:31:17.462Z,3.37
2018-04-27T02:33:45.727Z,3.43
2018-04-27T02:36:14.003Z,3.40
2018-04-27T02:38:42.273Z,3.47
2018-04-27T02:41:10.530Z,3.53
2018-04-27T02:43:38.801Z,3.40
2018-04-27T02:46:07.074Z,3.80
2018-04-27T02:48:35.342Z,3.47
2018-04-27T02:51:03.609Z,3.77
2018-04-27T02:53:31.887Z,3.27
2018-04-27T02:56:00.154Z,4.30
2018-04-27T02:58:28.441Z,3.97
2018-04-27T03:00:56.712Z,4.50
2018-04-27T03:03:24.995Z,4.37
2018-04-27T03:05:53.264Z,4.97
2018-04-27T03:08:21.550Z,3.27
2018-04-27T03:10:49.822Z,3.67
2018-04-27T03:13:18.105Z,3.87
2018-04-27T03:15:46.370Z,3.50
2018-04-27T03:18:14.630Z,4.63
2018-04-27T03:20:42.904Z,4.30
2018-04-27T03:23:11.161Z,4.07
2018-04-27T03:25:39.450Z,4.00
2018-04-27T03:28:07.773Z,4.00
2018-04-27T03:30:36.045Z,4.00
2018-04-27T03:33:04.297Z,4.03
2018-04-27T03:35:32.577Z,4.57
2018-04-27T03:38:00.877Z,4.10
2018-04-27T03:40:29.117Z,3.67
2018-04-27T03:42:57.389Z,4.33
2018-04-27T03:45:25.695Z,4.00
2018-04-27T03:47:53.921Z,3.63
2018-04-27T03:50:22.203Z,3.87
2018-04-27T03:52:50.458Z,5.10
2018-04-27T03:55:18.738Z,3.93
2018-04-27T03:57:46.998Z,3.00
2018-04-27T04:00:26.994Z,4.37
2018-04-27T04:03:06.931Z,4.03
2018-04-27T04:05:35.238Z,4.17
2018-04-27T04:08:03.518Z,3.77
2018-04-27T04:10:31.773Z,4.47
2018-04-27T04:13:00.050Z,4.60
2018-04-27T04:15:28.318Z,4.03
2018-04-27T04:17:56.597Z,4.10
2018-04-27T04:20:24.878Z,4.40
2018-04-27T04:22:53.164Z,4.00
2018-04-27T04:25:21.434Z,3.90
2018-04-27T04:27:49.706Z,4.07
2018-04-27T04:30:17.978Z,3.83
2018-04-27T04:32:46.257Z,4.30
2018-04-27T04:35:14.517Z,4.37
2018-04-27T04:37:42.790Z,4.73
2018-04-27T04:40:11.054Z,4.33
2018-04-27T04:42:39.325Z,4.07
2018-04-27T04:45:07.671Z,3.90
2018-04-27T04:47:35.875Z,4.00
2018-04-27T04:50:04.140Z,3.80
2018-04-27T04:52:32.461Z,4.63
2018-04-27T04:55:00.685Z,4.27
2018-04-27T04:57:28.946Z,3.80
2018-04-27T04:59:57.226Z,4.60
2018-04-27T05:02:25.490Z,4.50
2018-04-27T05:04:53.781Z,4.40
2018-04-27T05:07:22.055Z,4.00
2018-04-27T05:09:50.345Z,4.53
2018-04-27T05:12:18.612Z,4.17
2018-04-27T05:14:46.882Z,4.67
2018-04-27T05:17:15.157Z,4.50
2018-04-27T05:19:43.429Z,4.40
2018-04-27T05:22:11.694Z,4.53
2018-04-27T05:24:39.969Z,4.03
2018-04-27T05:27:08.249Z,4.70
2018-04-27T05:29:36.581Z,4.60
2018-04-27T05:32:04.798Z,4.13
2018-04-27T05:34:33.057Z,4.17
2018-04-27T05:37:01.334Z,4.10
2018-04-27T05:39:29.598Z,4.60
2018-04-27T05:41:57.874Z,4.00
2018-04-27T05:44:26.442Z,4.10
2018-04-27T05:46:54.722Z,4.60
2018-04-27T05:49:22.989Z,4.47
2018-04-27T05:51:51.267Z,4.60
2018-04-27T05:54:19.540Z,4.20
2018-04-27T05:56:47.821Z,4.30
2018-04-27T05:59:16.110Z,4.90
2018-04-27T06:01:44.402Z,4.20
2018-04-27T06:04:12.673Z,4.53
2018-04-27T06:06:40.937Z,4.03
2018-04-27T06:09:09.213Z,4.50
2018-04-27T06:11:37.485Z,4.13
2018-04-27T06:14:05.769Z,4.33
2018-04-27T06:16:34.038Z,4.97
2018-04-27T06:19:02.330Z,4.70
2018-04-27T06:21:30.603Z,4.80
2018-04-27T06:23:58.881Z,4.87
2018-04-27T06:26:27.148Z,4.70
2018-04-27T06:28:55.432Z,4.80
2018-04-27T06:31:23.701Z,4.27
2018-04-27T06:33:51.986Z,5.30
2018-04-27T06:36:20.269Z,4.70
2018-04-27T06:38:48.553Z,4.90
2018-04-27T06:41:16.829Z,4.27
2018-04-27T06:43:45.105Z,4.97
2018-04-27T06:46:13.398Z,4.10
2018-04-27T06:48:41.665Z,4.17
2018-04-27T06:51:09.942Z,4.23
2018-04-27T06:53:38.217Z,4.10
2018-04-27T06:56:06.537Z,3.90
2018-04-27T06:58:34.797Z,3.60
2018-04-27T07:01:03.085Z,3.80
2018-04-27T07:03:31.358Z,3.50
2018-04-27T07:05:59.633Z,3.80
2018-04-27T07:08:27.917Z,3.67
2018-04-27T07:10:56.201Z,3.50
2018-04-27T07:13:24.479Z,3.83
2018-04-27T07:15:52.769Z,3.83
2018-04-27T07:18:21.034Z,3.47
2018-04-27T07:20:49.326Z,3.67
2018-04-27T07:23:17.601Z,3.80
2018-04-27T07:25:45.886Z,3.37
2018-04-27T07:28:14.160Z,3.37
2018-04-27T07:30:42.426Z,3.60
2018-04-27T07:33:10.706Z,3.00
2018-04-27T07:35:38.974Z,2.90
2018-04-27T07:38:07.250Z,2.73
2018-04-27T07:40:35.522Z,3.33
2018-04-27T07:43:03.798Z,3.10
2018-04-27T07:45:32.063Z,3.00
2018-04-27T07:48:00.346Z,3.50
2018-04-27T07:50:28.613Z,2.80
2018-04-27T07:52:56.889Z,2.60
2018-04-27T07:55:25.231Z,2.80
2018-04-27T07:57:53.466Z,3.00
2018-04-27T08:00:21.741Z,2.60
2018-04-27T08:02:50.061Z,3.00
2018-04-27T08:05:18.329Z,3.00
2018-04-27T08:07:46.629Z,2.43
2018-04-27T08:10:14.905Z,3.40
2018-04-27T08:12:43.185Z,3.00
2018-04-27T08:15:11.471Z,2.60
2018-04-27T08:17:39.767Z,2.47
2018-04-27T08:20:08.049Z,2.30
2018-04-27T08:22:37.058Z,2.93
2018-04-27T08:25:05.337Z,2.63
2018-04-27T08:27:33.606Z,2.63
2018-04-27T08:30:01.892Z,2.60
2018-04-27T08:32:30.154Z,2.57
2018-04-27T08:34:58.458Z,2.40
2018-04-27T08:37:26.729Z,2.77
2018-04-27T08:39:55.007Z,2.50
2018-04-27T08:42:23.270Z,2.20
2018-04-27T08:44:51.563Z,1.97
2018-04-27T08:47:19.830Z,2.60
2018-04-27T08:49:48.133Z,2.37
2018-04-27T08:52:16.379Z,2.27
2018-04-27T08:54:44.665Z,2.40
2018-04-27T08:57:12.941Z,2.33
2018-04-27T08:59:41.209Z,2.53
2018-04-27T09:02:09.537Z,2.50
2018-04-27T09:04:37.814Z,2.30
2018-04-27T09:07:06.102Z,2.57
2018-04-27T09:09:34.362Z,2.13
2018-04-27T09:12:02.657Z,2.43
2018-04-27T09:14:30.933Z,2.53
2018-04-27T09:16:59.210Z,2.53
2018-04-27T09:19:27.491Z,2.50
2018-04-27T09:21:55.763Z,2.20
2018-04-27T09:24:24.046Z,2.20
2018-04-27T09:26:52.397Z,2.43
2018-04-27T09:29:20.614Z,2.30
2018-04-27T09:31:48.886Z,2.07
2018-04-27T09:34:17.167Z,2.17
2018-04-27T09:36:45.446Z,2.93
2018-04-27T09:39:13.713Z,2.27
2018-04-27T09:41:41.998Z,2.53
2018-04-27T09:44:10.263Z,2.33
2018-04-27T09:46:38.553Z,2.43
2018-04-27T09:49:06.829Z,2.07
2018-04-27T09:51:35.091Z,2.47
2018-04-27T09:54:03.365Z,3.00
2018-04-27T09:56:31.652Z,2.40
2018-04-27T09:58:59.938Z,2.83
2018-04-27T10:01:28.210Z,2.37
2018-04-27T10:03:56.565Z,2.20
2018-04-27T10:06:24.775Z,2.73
2018-04-27T10:08:53.077Z,3.20
2018-04-27T10:11:21.354Z,2.53
2018-04-27T10:13:49.622Z,2.43
2018-04-27T10:16:17.905Z,2.07
2018-04-27T10:18:46.165Z,2.60
2018-04-27T10:21:14.749Z,2.57
2018-04-27T10:23:43.015Z,2.23
2018-04-27T10:26:11.280Z,2.20
2018-04-27T10:28:39.557Z,2.00
2018-04-27T10:31:07.849Z,2.10
2018-04-27T10:33:36.135Z,2.30
2018-04-27T10:36:04.414Z,2.33
2018-04-27T10:38:32.708Z,2.37
2018-04-27T10:41:00.981Z,2.00
2018-04-27T10:43:29.321Z,2.50
2018-04-27T10:45:57.598Z,2.63
2018-04-27T10:48:25.870Z,2.50
2018-04-27T10:50:54.150Z,2.43
2018-04-27T10:53:22.421Z,2.97
2018-04-27T10:55:50.719Z,2.23
2018-04-27T10:58:19.062Z,2.43
2018-04-27T11:00:47.350Z,2.77
2018-04-27T11:03:15.654Z,2.27
2018-04-27T11:05:43.908Z,1.67
2018-04-27T11:08:12.181Z,2.27
2018-04-27T11:10:40.459Z,2.33
2018-04-27T11:13:08.738Z,2.53
2018-04-27T11:15:37.015Z,2.80
2018-04-27T11:18:05.293Z,2.43
2018-04-27T11:20:33.559Z,1.90
2018-04-27T11:23:01.848Z,2.10
2018-04-27T11:25:38.529Z,2.53
2018-04-27T11:28:07.153Z,1.90
2018-04-27T11:30:35.424Z,2.53
2018-04-27T11:33:03.689Z,2.60
2018-04-27T11:35:31.966Z,2.23
2018-04-27T11:38:00.238Z,2.03
2018-04-27T11:40:28.514Z,2.30
2018-04-27T11:42:56.782Z,2.90
2018-04-27T11:45:25.067Z,2.73
2018-04-27T11:47:53.338Z,2.40
2018-04-27T11:50:21.626Z,2.27
2018-04-27T11:52:49.894Z,2.73
2018-04-27T11:55:18.170Z,2.10
2018-04-27T11:57:46.440Z,2.47
2018-04-27T12:00:14.725Z,2.47
2018-04-27T12:02:42.999Z,3.33
2018-04-27T12:05:11.285Z,3.07
2018-04-27T12:07:39.553Z,2.17
2018-04-27T12:10:07.833Z,1.93
2018-04-27T12:12:36.106Z,2.50
2018-04-27T12:15:04.394Z,2.57
2018-04-27T12:17:32.690Z,2.33
2018-04-27T12:20:00.937Z,2.70
2018-04-27T12:22:29.334Z,2.17
2018-04-27T12:24:57.601Z,1.90
2018-04-27T12:27:25.882Z,2.10
2018-04-27T12:29:54.154Z,2.97
2018-04-27T12:32:22.449Z,3.00
2018-04-27T12:34:50.739Z,2.70
2018-04-27T12:37:19.038Z,3.03
2018-04-27T12:39:47.296Z,2.67
2018-04-27T12:42:15.570Z,1.90
2018-04-27T12:44:43.848Z,2.23
2018-04-27T12:47:12.138Z,2.37
2018-04-27T12:49:40.414Z,2.73
2018-04-27T12:52:08.754Z,2.40
2018-04-27T12:54:36.990Z,2.93
2018-04-27T12:57:05.275Z,2.07
2018-04-27T12:59:33.554Z,2.50
2018-04-27T13:02:01.829Z,2.33
2018-04-27T13:04:30.122Z,2.53
2018-04-27T13:06:58.402Z,2.63
2018-04-27T13:09:26.681Z,2.90
2018-04-27T13:11:54.949Z,2.77
2018-04-27T13:14:23.270Z,3.03
2018-04-27T13:16:51.547Z,3.10
2018-04-27T13:19:19.841Z,2.67
2018-04-27T13:21:48.110Z,2.23
2018-04-27T13:24:16.386Z,3.00
2018-04-27T13:26:44.663Z,2.70
2018-04-27T13:29:12.953Z,3.17
2018-04-27T13:31:41.225Z,2.90
2018-04-27T13:34:09.518Z,3.27
2018-04-27T13:36:37.792Z,3.03
2018-04-27T13:39:06.077Z,3.37
2018-04-27T13:41:34.362Z,3.63
2018-04-27T13:44:02.626Z,3.17
2018-04-27T13:46:30.906Z,3.40
2018-04-27T13:48:59.203Z,3.33
2018-04-27T13:51:27.501Z,3.50
2018-04-27T13:53:55.773Z,3.10
2018-04-27T13:56:24.069Z,3.33
2018-04-27T13:58:52.344Z,3.13
2018-04-27T14:01:20.634Z,3.10
2018-04-27T14:03:48.910Z,3.70
2018-04-27T14:06:17.203Z,3.60
2018-04-27T14:08:45.481Z,3.50
2018-04-27T14:11:13.800Z,3.37
2018-04-27T14:13:42.038Z,3.20
2018-04-27T14:16:10.311Z,3.57
2018-04-27T14:18:38.604Z,3.60
2018-04-27T14:21:06.877Z,3.77
2018-04-27T14:23:35.163Z,4.00
2018-04-27T14:26:03.431Z,3.83
2018-04-27T14:28:31.713Z,3.50
2018-04-27T14:30:59.993Z,3.30
2018-04-27T14:33:27.553Z,3.97
2018-04-27T14:35:55.598Z,4.47
2018-04-27T14:38:23.873Z,3.37
2018-04-27T14:40:52.165Z,3.13
2018-04-27T14:43:20.441Z,3.60
2018-04-27T14:45:48.728Z,3.40
2018-04-27T14:48:16.995Z,3.50
2018-04-27T14:50:45.270Z,3.47
2018-04-27T14:53:13.554Z,3.87
2018-04-27T14:55:41.818Z,4.07
2018-04-27T14:58:10.102Z,3.60
2018-04-27T15:00:38.469Z,3.87
2018-04-27T15:03:06.765Z,3.83
2018-04-27T15:05:35.039Z,4.00
2018-04-27T15:08:03.318Z,4.20
2018-04-27T15:10:31.610Z,4.50
2018-04-27T15:12:59.890Z,4.00
2018-04-27T15:15:28.173Z,4.23
2018-04-27T15:17:56.442Z,3.80
2018-04-27T15:20:24.759Z,4.00
2018-04-27T15:22:53.039Z,4.03
2018-04-27T15:25:21.312Z,4.10
2018-04-27T15:27:49.604Z,4.73
2018-04-27T15:30:17.948Z,4.40
2018-04-27T15:32:46.158Z,4.20
2018-04-27T15:35:14.452Z,4.20
2018-04-27T15:37:42.734Z,4.23
2018-04-27T15:40:11.014Z,4.00
2018-04-27T15:42:39.294Z,3.80
2018-04-27T15:45:07.565Z,4.37
2018-04-27T15:47:35.844Z,3.90
2018-04-27T15:50:04.147Z,4.47
2018-04-27T15:52:32.410Z,3.93
2018-04-27T15:55:00.701Z,4.03
2018-04-27T15:57:29.146Z,3.40
2018-04-27T15:59:57.385Z,3.60
2018-04-27T16:02:25.671Z,3.60
2018-04-27T16:04:53.949Z,3.80
2018-04-27T16:07:22.245Z,3.63
2018-04-27T16:09:51.350Z,4.13
2018-04-27T16:12:19.641Z,3.73
2018-04-27T16:14:47.928Z,3.30
2018-04-27T16:17:16.181Z,3.50
2018-04-27T16:19:44.470Z,3.60
2018-04-27T16:22:12.743Z,3.47
2018-04-27T16:24:51.693Z,2.63
2018-04-27T16:27:19.965Z,2.70
2018-04-27T16:29:48.262Z,2.43
2018-04-27T16:32:16.514Z,2.90
2018-04-27T16:34:44.781Z,2.23
2018-04-27T16:37:13.090Z,2.90
2018-04-27T16:39:41.368Z,2.60
2018-04-27T16:42:09.656Z,2.50
2018-04-27T16:44:37.924Z,2.80
2018-04-27T16:47:06.211Z,2.63
2018-04-27T16:49:34.476Z,2.93
2018-04-27T16:52:02.738Z,2.50
2018-04-27T16:54:31.055Z,2.57
2018-04-27T16:56:59.274Z,2.40
2018-04-27T16:59:27.542Z,2.10
2018-04-27T17:01:55.804Z,2.63
2018-04-27T17:04:24.087Z,2.47
2018-04-27T17:06:52.350Z,2.47
2018-04-27T17:09:20.613Z,2.73
2018-04-27T17:11:48.885Z,3.13
2018-04-27T17:14:17.150Z,2.90
2018-04-27T17:16:45.441Z,2.60
2018-04-27T17:19:13.706Z,2.27
2018-04-27T17:21:42.038Z,2.50
2018-04-27T17:24:10.298Z,2.37
2018-04-27T17:26:38.630Z,2.50
2018-04-27T17:29:06.847Z,2.93
2018-04-27T17:31:35.111Z,2.87
2018-04-27T17:34:03.379Z,2.93
2018-04-27T17:36:31.637Z,2.43
2018-04-27T17:38:59.922Z,3.20
2018-04-27T17:41:28.196Z,2.87
2018-04-27T17:43:56.469Z,2.80
2018-04-27T17:46:24.747Z,3.73
2018-04-27T17:48:53.063Z,2.57
2018-04-27T17:51:21.325Z,2.73
2018-04-27T17:53:49.587Z,3.07
2018-04-27T17:56:17.881Z,2.70
2018-04-27T17:58:46.157Z,3.30
2018-04-27T18:01:14.422Z,3.17
2018-04-27T18:03:42.710Z,2.87
2018-04-27T18:06:10.978Z,3.03
2018-04-27T18:08:39.257Z,2.53
2018-04-27T18:11:07.535Z,2.70
2018-04-27T18:13:35.817Z,2.90
2018-04-27T18:16:04.109Z,2.30
2018-04-27T18:18:32.375Z,2.77
2018-04-27T18:21:00.656Z,2.47
2018-04-27T18:23:28.922Z,2.30
2018-04-27T18:25:57.208Z,2.43
2018-04-27T18:28:25.483Z,3.20
2018-04-27T18:30:53.783Z,2.67
2018-04-27T18:33:22.088Z,2.87
2018-04-27T18:35:50.321Z,2.47
2018-04-27T18:38:18.598Z,2.50
2018-04-27T18:40:46.893Z,2.53
2018-04-27T18:43:15.174Z,2.23
2018-04-27T18:45:43.445Z,4.23
2018-04-27T18:48:11.729Z,4.70
2018-04-27T18:50:40.002Z,4.80
2018-04-27T18:53:08.269Z,3.77
2018-04-27T18:55:36.545Z,3.47
2018-04-27T18:58:04.818Z,2.60
2018-04-27T19:00:36.923Z,3.97
2018-04-27T19:03:06.002Z,3.93
2018-04-27T19:05:34.245Z,4.00
2018-04-27T19:08:02.503Z,3.50
2018-04-27T19:10:41.754Z,3.60
2018-04-27T19:13:12.675Z,3.30
2018-04-27T19:15:40.966Z,3.33
2018-04-27T19:18:09.234Z,4.03
2018-04-27T19:20:38.245Z,3.90
2018-04-27T19:23:07.431Z,4.23
2018-04-27T19:25:49.812Z,4.17
2018-04-27T19:28:21.469Z,3.50
2018-04-27T19:30:49.746Z,4.20
2018-04-27T19:33:18.053Z,3.40
2018-04-27T19:35:46.320Z,3.63
2018-04-27T19:38:14.599Z,2.73
2018-04-27T19:40:42.866Z,3.27
2018-04-27T19:43:11.147Z,3.57
2018-04-27T19:45:39.437Z,3.73
2018-04-27T19:48:07.721Z,3.87
2018-04-27T19:50:37.924Z,4.37
2018-04-27T19:53:06.204Z,3.47
2018-04-27T19:55:34.476Z,2.90
2018-04-27T19:58:02.765Z,3.43
2018-04-27T20:00:31.040Z,3.97
2018-04-27T20:02:59.330Z,3.80
2018-04-27T20:05:27.597Z,3.13
2018-04-27T20:07:55.883Z,3.50
2018-04-27T20:10:25.537Z,4.40
2018-04-27T20:12:53.882Z,3.23
2018-04-27T20:15:33.762Z,4.07
2018-04-27T20:18:02.131Z,3.57
2018-04-27T20:20:30.395Z,4.40
2018-04-27T20:23:01.283Z,3.80
2018-04-27T20:25:29.563Z,3.50
2018-04-27T20:27:57.850Z,3.80
2018-04-27T20:30:26.118Z,4.20
2018-04-27T20:32:54.400Z,4.50
2018-04-27T20:35:22.682Z,3.83
2018-04-27T20:38:05.826Z,4.30
2018-04-27T20:40:34.105Z,3.70
2018-04-27T20:43:05.972Z,4.57
2018-04-27T20:45:35.026Z,4.20
2018-04-27T20:48:03.342Z,4.50
2018-04-27T20:50:32.525Z,3.90
2018-04-27T20:53:03.750Z,4.20
2018-04-27T20:55:32.043Z,4.43
2018-04-27T20:58:00.318Z,4.23
2018-04-27T21:00:28.587Z,4.43
2018-04-27T21:02:56.869Z,4.47
2018-04-27T21:05:25.228Z,4.40
2018-04-27T21:07:53.473Z,4.87
2018-04-27T21:10:21.746Z,4.50
2018-04-27T21:12:50.949Z,4.30
2018-04-27T21:15:19.221Z,3.90
2018-04-27T21:17:49.115Z,4.10
2018-04-27T21:20:19.997Z,4.63
2018-04-27T21:22:48.874Z,4.90
2018-04-27T21:28:16.977Z,5.00
2018-04-27T21:30:45.250Z,4.27
2018-04-27T21:33:13.517Z,4.53
2018-04-27T21:35:52.631Z,4.57
2018-04-27T21:41:21.549Z,4.30
2018-04-27T21:43:49.821Z,4.80
2018-04-27T21:46:20.041Z,4.70
2018-04-27T21:48:48.322Z,5.00
2018-04-27T21:51:16.595Z,4.80
2018-04-27T21:53:44.877Z,4.60
2018-04-27T21:56:13.167Z,4.60
2018-04-27T21:58:41.446Z,4.93
2018-04-27T22:01:09.720Z,4.90
2018-04-27T22:03:38.025Z,4.97
2018-04-27T22:06:06.289Z,4.87
2018-04-27T22:08:40.525Z,4.33
2018-04-27T22:14:04.620Z,5.80
2018-04-27T22:16:47.474Z,4.40
2018-04-27T22:19:17.469Z,4.40
2018-04-27T22:21:46.557Z,4.23
2018-04-27T22:24:14.846Z,5.17
2018-04-27T22:26:44.772Z,4.90
2018-04-27T22:29:23.851Z,5.67
2018-04-27T22:31:55.469Z,5.00
2018-04-27T22:34:25.237Z,4.50
2018-04-27T22:36:53.509Z,4.40
2018-04-27T22:39:32.637Z,4.30
2018-04-27T22:42:07.405Z,4.20
2018-04-27T22:44:38.557Z,4.00
2018-04-27T22:47:06.817Z,4.07
2018-04-27T22:49:35.109Z,5.30
2018-04-27T22:52:03.377Z,4.63
2018-04-27T22:57:51.799Z,5.17
2018-04-27T23:00:20.086Z,3.90
2018-04-27T23:02:50.148Z,4.47
2018-04-27T23:05:25.806Z,4.00
2018-04-27T23:07:55.333Z,4.80
2018-04-27T23:10:23.606Z,4.80
2018-04-27T23:13:02.521Z,4.87
2018-04-27T23:15:47.466Z,4.80
2018-04-27T23:18:18.353Z,5.70
2018-04-27T23:20:48.314Z,4.43
2018-04-27T23:23:17.366Z,4.23
2018-04-27T23:25:49.164Z,4.40
2018-04-27T23:28:17.434Z,5.60
2018-04-27T23:30:47.221Z,5.57
2018-04-27T23:33:15.505Z,5.30
2018-04-27T23:35:44.737Z,5.50
2018-04-27T23:38:13.010Z,5.20
2018-04-27T23:40:41.290Z,5.70
2018-04-27T23:43:10.892Z,4.70
2018-04-27T23:45:39.174Z,5.43
2018-04-27T23:48:07.442Z,5.33
2018-04-27T23:50:35.731Z,5.53
2018-04-27T23:53:03.993Z,4.40
2018-04-27T23:55:32.265Z,5.40
2018-04-27T23:58:00.583Z,6.20
